createdAt,value
2023-10-01T00:01:56.185Z,3.10
2023-10-01T00:04:27.258Z,2.67
2023-10-01T00:06:59.372Z,3.05
2023-10-01T00:09:30.839Z,3.72
2023-10-01T00:12:01.733Z,2.22
2023-10-01T00:14:33.047Z,2.55
2023-10-01T00:17:04.322Z,1.92
2023-10-01T00:19:35.896Z,2.15
2023-10-01T00:22:07.131Z,2.63
2023-10-01T00:24:38.301Z,3.20
2023-10-01T00:27:11.559Z,2.28
2023-10-01T00:29:44.095Z,2.33
2023-10-01T00:32:16.329Z,3.05
2023-10-01T00:34:47.762Z,2.28
2023-10-01T00:39:49.738Z,3.00
2023-10-01T00:42:20.816Z,2.40
2023-10-01T00:44:52.010Z,2.35
2023-10-01T00:47:24.616Z,2.20
2023-10-01T00:49:59.664Z,1.95
2023-10-01T00:52:31.469Z,2.25
2023-10-01T00:55:02.540Z,1.50
2023-10-01T00:57:33.981Z,2.00
2023-10-01T01:00:05.525Z,1.80
2023-10-01T01:05:36.801Z,2.35
2023-10-01T01:08:23.876Z,2.88
2023-10-01T01:10:55.716Z,2.13
2023-10-01T01:16:03.049Z,2.83
2023-10-01T01:18:37.014Z,2.35
2023-10-01T01:21:13.439Z,1.45
2023-10-01T01:23:44.484Z,1.85
2023-10-01T01:26:16.447Z,2.60
2023-10-01T01:28:47.669Z,1.55
2023-10-01T01:31:19.360Z,2.55
2023-10-01T01:36:32.884Z,1.98
2023-10-01T01:39:30.226Z,2.25
2023-10-01T01:42:01.369Z,1.27
2023-10-01T01:44:34.180Z,1.77
2023-10-01T01:47:05.032Z,2.08
2023-10-01T01:49:35.801Z,1.98
2023-10-01T01:52:06.758Z,1.63
2023-10-01T01:54:39.924Z,2.78
2023-10-01T01:57:16.249Z,1.45
2023-10-01T01:59:47.037Z,1.67
2023-10-01T02:02:17.413Z,1.17
2023-10-01T02:05:03.258Z,2.42
2023-10-01T02:07:35.976Z,1.73
2023-10-01T02:10:07.538Z,1.52
2023-10-01T02:15:11.174Z,1.73
2023-10-01T02:17:42.044Z,1.58
2023-10-01T02:20:30.319Z,1.08
2023-10-01T02:23:05.512Z,1.45
2023-10-01T02:25:48.099Z,1.95
2023-10-01T02:28:18.343Z,1.10
2023-10-01T02:30:48.533Z,1.23
2023-10-01T02:33:19.678Z,1.58
2023-10-01T02:35:58.746Z,1.30
2023-10-01T02:38:47.910Z,1.40
2023-10-01T02:41:22.826Z,1.23
2023-10-01T02:43:57.872Z,1.10
2023-10-01T02:46:30.966Z,1.48
2023-10-01T02:49:08.696Z,1.25
2023-10-01T02:51:41.661Z,1.27
2023-10-01T02:54:12.466Z,1.08
2023-10-01T02:57:02.724Z,1.20
2023-10-01T02:59:33.059Z,1.25
2023-10-01T03:02:10.415Z,1.23
2023-10-01T03:04:42.678Z,1.55
2023-10-01T03:07:17.150Z,1.80
2023-10-01T03:09:51.150Z,1.90
2023-10-01T03:12:30.006Z,1.17
2023-10-01T03:15:29.194Z,1.08
2023-10-01T03:18:08.462Z,1.33
2023-10-01T03:20:41.770Z,1.15
2023-10-01T03:23:24.969Z,1.20
2023-10-01T03:26:10.659Z,1.17
2023-10-01T03:29:00.502Z,1.08
2023-10-01T03:31:31.871Z,0.98
2023-10-01T03:34:02.475Z,1.17
2023-10-01T03:36:35.198Z,0.73
2023-10-01T03:39:27.709Z,1.25
2023-10-01T03:42:19.802Z,1.20
2023-10-01T03:45:02.568Z,0.90
2023-10-01T03:47:36.997Z,1.23
2023-10-01T03:50:10.548Z,1.15
2023-10-01T03:52:43.509Z,1.73
2023-10-01T03:55:28.771Z,1.02
2023-10-01T03:58:10.777Z,1.58
2023-10-01T04:00:44.066Z,1.02
2023-10-01T04:03:16.375Z,1.27
2023-10-01T04:05:49.261Z,1.25
2023-10-01T04:08:19.580Z,0.75
2023-10-01T04:11:00.377Z,0.98
2023-10-01T04:13:30.604Z,1.13
2023-10-01T04:16:11.052Z,1.08
2023-10-01T04:18:44.409Z,1.15
2023-10-01T04:21:20.545Z,0.80
2023-10-01T04:23:50.747Z,1.50
2023-10-01T04:26:20.900Z,1.13
2023-10-01T04:28:56.714Z,0.93
2023-10-01T04:31:47.086Z,1.17
2023-10-01T04:36:52.822Z,1.50
2023-10-01T04:39:23.237Z,0.77
2023-10-01T04:42:04.739Z,1.35
2023-10-01T04:44:37.417Z,0.80
2023-10-01T04:47:27.382Z,1.73
2023-10-01T04:50:00.524Z,0.77
2023-10-01T04:52:31.238Z,1.20
2023-10-01T04:55:13.072Z,1.05
2023-10-01T04:57:51.400Z,1.85
2023-10-01T05:00:25.029Z,1.27
2023-10-01T05:03:01.652Z,1.10
2023-10-01T05:05:32.046Z,1.20
2023-10-01T05:08:04.388Z,1.50
2023-10-01T05:10:52.943Z,1.02
2023-10-01T05:13:24.842Z,1.42
2023-10-01T05:15:58.699Z,1.35
2023-10-01T05:18:32.612Z,1.33
2023-10-01T05:21:06.640Z,0.65
2023-10-01T05:23:38.759Z,1.42
2023-10-01T05:26:12.749Z,1.23
2023-10-01T05:28:47.324Z,2.10
2023-10-01T05:31:18.033Z,1.15
2023-10-01T05:33:54.602Z,0.88
2023-10-01T05:36:25.604Z,0.90
2023-10-01T05:38:56.376Z,1.60
2023-10-01T05:41:34.867Z,1.75
2023-10-01T05:44:06.940Z,1.20
2023-10-01T05:46:38.878Z,1.60
2023-10-01T05:49:10.955Z,1.45
2023-10-01T05:51:47.570Z,1.65
2023-10-01T05:54:24.372Z,1.40
2023-10-01T05:56:57.506Z,1.48
2023-10-01T05:59:28.658Z,1.88
2023-10-01T06:02:00.332Z,1.23
2023-10-01T06:04:30.570Z,1.48
2023-10-01T06:07:04.814Z,1.65
2023-10-01T06:09:38.094Z,1.38
2023-10-01T06:12:08.788Z,1.20
2023-10-01T06:14:41.194Z,1.58
2023-10-01T06:17:13.384Z,1.30
2023-10-01T06:19:44.784Z,1.13
2023-10-01T06:22:15.390Z,1.38
2023-10-01T06:24:46.141Z,1.10
2023-10-01T06:27:20.638Z,1.15
2023-10-01T06:29:53.513Z,2.25
2023-10-01T06:32:25.871Z,1.20
2023-10-01T06:34:59.818Z,1.10
2023-10-01T06:37:47.882Z,0.98
2023-10-01T06:40:32.251Z,1.67
2023-10-01T06:43:02.758Z,1.55
2023-10-01T06:45:42.938Z,1.48
2023-10-01T06:48:16.929Z,1.58
2023-10-01T06:50:48.511Z,1.98
2023-10-01T06:53:18.875Z,0.60
2023-10-01T06:55:49.676Z,1.10
2023-10-01T06:58:20.973Z,0.88
2023-10-01T07:00:51.268Z,1.00
2023-10-01T07:03:24.012Z,0.98
2023-10-01T07:05:58.312Z,1.17
2023-10-01T07:08:39.747Z,1.10
2023-10-01T07:11:20.632Z,1.05
2023-10-01T07:13:54.743Z,1.13
2023-10-01T07:16:45.253Z,1.23
2023-10-01T07:19:16.533Z,1.20
2023-10-01T07:21:59.001Z,1.45
2023-10-01T07:24:33.166Z,1.17
2023-10-01T07:27:08.409Z,1.20
2023-10-01T07:29:44.674Z,1.13
2023-10-01T07:32:15.888Z,1.20
2023-10-01T07:34:58.414Z,1.15
2023-10-01T07:37:31.506Z,2.58
2023-10-01T07:40:11.308Z,1.08
2023-10-01T07:42:51.659Z,1.70
2023-10-01T07:45:22.162Z,1.30
2023-10-01T07:47:52.541Z,1.30
2023-10-01T07:50:23.608Z,1.27
2023-10-01T07:53:06.103Z,1.30
2023-10-01T07:55:39.997Z,0.82
2023-10-01T07:58:28.170Z,1.33
2023-10-01T08:01:25.508Z,1.27
2023-10-01T08:03:58.522Z,1.40
2023-10-01T08:06:33.012Z,1.70
2023-10-01T08:09:10.526Z,1.27
2023-10-01T08:12:07.868Z,1.05
2023-10-01T08:14:38.259Z,1.30
2023-10-01T08:17:10.332Z,1.63
2023-10-01T08:19:59.162Z,1.48
2023-10-01T08:22:46.000Z,1.33
2023-10-01T08:25:16.344Z,1.17
2023-10-01T08:28:27.196Z,1.17
2023-10-01T08:31:03.866Z,1.77
2023-10-01T08:33:42.078Z,1.15
2023-10-01T08:36:15.055Z,1.02
2023-10-01T08:39:11.478Z,1.33
2023-10-01T08:41:54.423Z,2.38
2023-10-01T08:44:48.287Z,1.60
2023-10-01T08:47:36.834Z,1.55
2023-10-01T08:50:38.772Z,1.25
2023-10-01T08:53:13.418Z,1.20
2023-10-01T08:55:48.020Z,1.83
2023-10-01T08:58:19.575Z,1.40
2023-10-01T09:00:55.925Z,1.52
2023-10-01T09:03:36.960Z,1.60
2023-10-01T09:06:28.468Z,1.15
2023-10-01T09:09:03.578Z,1.42
2023-10-01T09:11:46.442Z,0.90
2023-10-01T09:14:20.270Z,1.75
2023-10-01T09:17:00.593Z,1.58
2023-10-01T09:19:52.983Z,1.10
2023-10-01T09:22:35.424Z,1.15
2023-10-01T09:25:32.960Z,1.13
2023-10-01T09:28:22.047Z,2.17
2023-10-01T09:31:05.328Z,1.45
2023-10-01T09:33:36.173Z,1.27
2023-10-01T09:36:07.142Z,1.15
2023-10-01T09:39:05.538Z,1.23
2023-10-01T09:41:45.728Z,1.23
2023-10-01T09:44:18.807Z,2.05
2023-10-01T09:46:50.575Z,1.25
2023-10-01T09:49:35.400Z,1.55
2023-10-01T09:52:07.477Z,1.65
2023-10-01T09:54:45.853Z,1.30
2023-10-01T09:57:16.194Z,1.90
2023-10-01T09:59:48.932Z,1.88
2023-10-01T10:02:29.573Z,1.38
2023-10-01T10:05:00.337Z,1.70
2023-10-01T10:07:30.705Z,2.25
2023-10-01T10:10:00.991Z,1.92
2023-10-01T10:12:38.620Z,1.45
2023-10-01T10:15:10.778Z,1.55
2023-10-01T10:18:18.220Z,1.88
2023-10-01T10:21:02.526Z,1.95
2023-10-01T10:23:52.466Z,2.45
2023-10-01T10:27:01.942Z,1.92
2023-10-01T10:30:08.837Z,2.15
2023-10-01T10:32:49.489Z,1.45
2023-10-01T10:35:19.649Z,1.65
2023-10-01T10:37:59.100Z,1.25
2023-10-01T10:40:30.101Z,1.45
2023-10-01T10:43:00.495Z,1.02
2023-10-01T10:45:47.323Z,1.40
2023-10-01T10:48:24.226Z,1.35
2023-10-01T10:51:04.276Z,0.93
2023-10-01T10:53:45.209Z,1.52
2023-10-01T10:56:17.762Z,1.60
2023-10-01T10:59:06.153Z,1.60
2023-10-01T11:01:53.761Z,1.45
2023-10-01T11:04:33.167Z,1.52
2023-10-01T11:07:07.176Z,2.13
2023-10-01T11:09:37.679Z,1.58
2023-10-01T11:12:23.894Z,1.55
2023-10-01T11:15:27.455Z,1.50
2023-10-01T11:18:11.605Z,1.98
2023-10-01T11:20:47.538Z,1.45
2023-10-01T11:23:20.635Z,1.20
2023-10-01T11:25:50.910Z,1.48
2023-10-01T11:28:21.191Z,1.60
2023-10-01T11:30:51.526Z,1.70
2023-10-01T11:33:34.771Z,2.15
2023-10-01T11:36:12.251Z,1.25
2023-10-01T11:38:50.442Z,1.10
2023-10-01T11:41:40.904Z,1.08
2023-10-01T11:47:01.910Z,1.40
2023-10-01T11:49:36.665Z,1.45
2023-10-01T11:52:30.822Z,1.15
2023-10-01T11:55:01.028Z,1.05
2023-10-01T11:57:34.087Z,1.50
2023-10-01T12:00:06.137Z,1.23
2023-10-01T12:02:46.041Z,1.27
2023-10-01T12:05:16.342Z,1.40
2023-10-01T12:07:46.758Z,1.30
2023-10-01T12:10:38.109Z,1.50
2023-10-01T12:13:09.859Z,1.67
2023-10-01T12:15:45.687Z,1.33
2023-10-01T12:18:20.164Z,1.50
2023-10-01T12:20:52.424Z,2.10
2023-10-01T12:23:25.018Z,1.65
2023-10-01T12:26:00.250Z,1.92
2023-10-01T12:28:30.754Z,3.30
2023-10-01T12:31:10.707Z,2.80
2023-10-01T12:33:42.399Z,3.03
2023-10-01T12:39:11.760Z,1.58
2023-10-01T12:41:55.471Z,1.17
2023-10-01T12:44:27.563Z,1.15
2023-10-01T12:49:38.265Z,1.38
2023-10-01T12:52:16.698Z,1.25
2023-10-01T12:54:47.228Z,1.83
2023-10-01T12:57:25.240Z,1.45
2023-10-01T13:00:30.590Z,1.38
2023-10-01T13:03:12.084Z,1.75
2023-10-01T13:05:46.235Z,1.65
2023-10-01T13:08:29.744Z,1.60
2023-10-01T13:11:00.210Z,1.33
2023-10-01T13:13:33.451Z,1.17
2023-10-01T13:16:04.334Z,1.05
2023-10-01T13:18:35.542Z,2.22
2023-10-01T13:21:15.278Z,1.38
2023-10-01T13:23:45.490Z,1.30
2023-10-01T13:26:34.316Z,1.95
2023-10-01T13:29:04.772Z,1.17
2023-10-01T13:31:35.150Z,3.15
2023-10-01T13:34:11.991Z,2.35
2023-10-01T13:36:57.841Z,2.22
2023-10-01T13:39:46.730Z,2.47
2023-10-01T13:42:34.757Z,2.08
2023-10-01T13:45:39.082Z,2.20
2023-10-01T13:48:27.496Z,1.38
2023-10-01T13:51:17.267Z,1.38
2023-10-01T13:54:05.449Z,2.63
2023-10-01T13:56:53.870Z,1.92
2023-10-01T13:59:42.885Z,1.98
2023-10-01T14:02:31.310Z,2.47
2023-10-01T14:05:19.802Z,2.13
2023-10-01T14:08:08.229Z,1.77
2023-10-01T14:10:41.195Z,2.25
2023-10-01T14:13:11.489Z,1.50
2023-10-01T14:15:43.353Z,1.40
2023-10-01T14:18:36.735Z,1.70
2023-10-01T14:21:15.103Z,1.60
2023-10-01T14:23:48.131Z,2.08
2023-10-01T14:26:29.261Z,1.10
2023-10-01T14:28:59.998Z,2.28
2023-10-01T14:31:48.383Z,2.00
2023-10-01T14:34:25.619Z,1.65
2023-10-01T14:37:00.640Z,1.80
2023-10-01T14:39:33.662Z,2.28
2023-10-01T14:42:04.021Z,2.20
2023-10-01T14:44:44.937Z,1.70
2023-10-01T14:47:20.098Z,2.17
2023-10-01T14:49:50.413Z,2.13
2023-10-01T14:52:25.347Z,1.98
2023-10-01T14:55:03.731Z,2.40
2023-10-01T14:57:35.153Z,2.40
2023-10-01T15:00:18.439Z,2.58
2023-10-01T15:02:51.269Z,1.95
2023-10-01T15:05:21.894Z,2.58
2023-10-01T15:07:52.102Z,2.05
2023-10-01T15:10:23.107Z,3.85
2023-10-01T15:13:04.408Z,3.13
2023-10-01T15:15:51.905Z,2.33
2023-10-01T15:18:26.417Z,2.90
2023-10-01T15:20:57.649Z,2.10
2023-10-01T15:23:30.054Z,2.20
2023-10-01T15:26:15.213Z,3.25
2023-10-01T15:28:55.107Z,2.60
2023-10-01T15:31:35.710Z,2.80
2023-10-01T15:34:07.313Z,2.78
2023-10-01T15:36:54.456Z,3.60
2023-10-01T15:39:35.101Z,3.00
2023-10-01T15:42:27.138Z,3.00
2023-10-01T15:45:01.770Z,5.35
2023-10-01T15:47:35.840Z,3.97
2023-10-01T15:50:12.526Z,3.75
2023-10-01T15:52:49.218Z,5.47
2023-10-01T15:55:20.360Z,5.18
2023-10-01T15:58:03.693Z,4.35
2023-10-01T16:00:37.234Z,4.03
2023-10-01T16:03:14.185Z,4.50
2023-10-01T16:05:48.512Z,4.75
2023-10-01T16:08:22.596Z,4.53
2023-10-01T16:11:03.458Z,3.92
2023-10-01T16:13:37.245Z,4.65
2023-10-01T16:16:12.298Z,5.63
2023-10-01T16:18:48.043Z,5.30
2023-10-01T16:21:19.541Z,4.13
2023-10-01T16:23:54.865Z,4.10
2023-10-01T16:26:27.087Z,3.92
2023-10-01T16:28:58.988Z,4.43
2023-10-01T16:31:30.988Z,3.97
2023-10-01T16:34:02.465Z,4.40
2023-10-01T16:36:42.192Z,4.95
2023-10-01T16:39:19.691Z,4.97
2023-10-01T16:41:51.696Z,6.45
2023-10-01T16:44:21.808Z,5.55
2023-10-01T16:47:00.198Z,5.80
2023-10-01T16:49:30.682Z,5.93
2023-10-01T16:52:01.051Z,5.70
2023-10-01T16:54:40.599Z,6.32
2023-10-01T16:57:14.502Z,5.53
2023-10-01T16:59:58.569Z,4.40
2023-10-01T17:02:31.612Z,4.72
2023-10-01T17:05:09.698Z,5.03
2023-10-01T17:07:43.780Z,5.18
2023-10-01T17:10:17.876Z,4.53
2023-10-01T17:12:48.219Z,4.78
2023-10-01T17:15:39.073Z,5.47
2023-10-01T17:18:18.725Z,5.07
2023-10-01T17:20:53.227Z,4.72
2023-10-01T17:23:24.293Z,4.15
2023-10-01T17:26:01.307Z,4.38
2023-10-01T17:29:01.564Z,3.97
2023-10-01T17:31:42.159Z,3.28
2023-10-01T17:34:13.706Z,4.28
2023-10-01T17:36:43.888Z,4.43
2023-10-01T17:39:27.613Z,4.13
2023-10-01T17:42:01.724Z,3.58
2023-10-01T17:44:42.094Z,3.60
2023-10-01T17:47:16.025Z,3.47
2023-10-01T17:49:50.459Z,3.97
2023-10-01T17:52:26.150Z,3.72
2023-10-01T17:57:43.594Z,4.20
2023-10-01T18:00:18.347Z,3.15
2023-10-01T18:02:48.621Z,3.15
2023-10-01T18:05:24.752Z,3.88
2023-10-01T18:07:56.838Z,3.92
2023-10-01T18:10:44.937Z,3.03
2023-10-01T18:13:29.035Z,4.05
2023-10-01T18:15:59.679Z,3.60
2023-10-01T18:18:31.869Z,3.10
2023-10-01T18:21:14.129Z,3.33
2023-10-01T18:23:44.551Z,3.47
2023-10-01T18:26:14.908Z,3.25
2023-10-01T18:28:45.497Z,2.50
2023-10-01T18:31:19.158Z,3.45
2023-10-01T18:33:52.497Z,3.50
2023-10-01T18:36:30.047Z,2.85
2023-10-01T18:39:01.539Z,2.25
2023-10-01T18:41:36.822Z,2.10
2023-10-01T18:44:07.171Z,2.58
2023-10-01T18:46:37.898Z,2.38
2023-10-01T18:49:08.562Z,2.55
2023-10-01T18:51:40.110Z,2.80
2023-10-01T18:54:12.165Z,2.58
2023-10-01T18:56:43.008Z,1.75
2023-10-01T19:01:43.585Z,2.08
2023-10-01T19:04:15.294Z,1.90
2023-10-01T19:06:46.720Z,2.53
2023-10-01T19:09:23.574Z,2.65
2023-10-01T19:11:59.803Z,2.00
2023-10-01T19:14:31.187Z,2.38
2023-10-01T19:17:02.355Z,2.30
2023-10-01T19:19:37.248Z,2.40
2023-10-01T19:22:13.137Z,3.08
2023-10-01T19:24:43.404Z,2.83
2023-10-01T19:27:16.199Z,2.03
2023-10-01T19:29:46.702Z,1.83
2023-10-01T19:32:17.151Z,1.83
2023-10-01T19:34:48.926Z,2.03
2023-10-01T19:37:19.771Z,2.47
2023-10-01T19:42:26.501Z,2.15
2023-10-01T19:45:06.467Z,1.67
2023-10-01T19:47:43.184Z,1.98
2023-10-01T19:50:32.509Z,1.90
2023-10-01T19:53:20.173Z,1.90
2023-10-01T19:56:06.668Z,1.67
2023-10-01T19:58:52.194Z,2.05
2023-10-01T20:01:24.151Z,1.58
2023-10-01T20:03:54.835Z,2.00
2023-10-01T20:06:28.000Z,1.75
2023-10-01T20:09:00.246Z,2.03
2023-10-01T20:11:34.779Z,2.10
2023-10-01T20:14:09.662Z,1.77
2023-10-01T20:16:42.947Z,2.22
2023-10-01T20:19:15.543Z,1.73
2023-10-01T20:21:45.850Z,2.15
2023-10-01T20:24:22.184Z,1.95
2023-10-01T20:26:56.516Z,2.60
2023-10-01T20:29:28.507Z,2.22
2023-10-01T20:32:04.894Z,2.05
2023-10-01T20:34:38.108Z,1.38
2023-10-01T20:37:13.624Z,1.98
2023-10-01T20:39:45.140Z,2.97
2023-10-01T20:42:20.261Z,1.80
2023-10-01T20:44:55.338Z,1.95
2023-10-01T20:47:25.792Z,1.42
2023-10-01T20:49:56.345Z,2.28
2023-10-01T20:52:35.609Z,1.67
2023-10-01T20:55:27.525Z,2.20
2023-10-01T20:58:07.420Z,2.30
2023-10-01T21:00:40.534Z,1.75
2023-10-01T21:03:14.532Z,2.00
2023-10-01T21:05:45.400Z,1.95
2023-10-01T21:08:21.530Z,2.53
2023-10-01T21:10:54.215Z,2.97
2023-10-01T21:13:31.098Z,2.00
2023-10-01T21:16:06.550Z,2.60
2023-10-01T21:18:37.683Z,2.75
2023-10-01T21:21:13.699Z,2.60
2023-10-01T21:23:47.007Z,3.53
2023-10-01T21:26:26.577Z,3.20
2023-10-01T21:29:00.604Z,3.17
2023-10-01T21:31:31.922Z,5.30
2023-10-01T21:34:18.928Z,4.72
2023-10-01T21:36:51.766Z,3.45
2023-10-01T21:39:25.786Z,3.00
2023-10-01T21:42:03.469Z,2.83
2023-10-01T21:44:37.612Z,2.58
2023-10-01T21:47:10.750Z,3.33
2023-10-01T21:49:55.867Z,3.00
2023-10-01T21:52:35.434Z,2.50
2023-10-01T21:55:08.828Z,1.90
2023-10-01T21:57:42.956Z,2.40
2023-10-01T22:00:39.342Z,1.92
2023-10-01T22:03:10.403Z,2.70
2023-10-01T22:05:44.054Z,2.35
2023-10-01T22:08:34.551Z,2.17
2023-10-01T22:11:05.891Z,2.08
2023-10-01T22:13:37.495Z,2.60
2023-10-01T22:16:11.561Z,2.28
2023-10-01T22:18:43.276Z,2.05
2023-10-01T22:23:52.812Z,1.75
2023-10-01T22:26:23.809Z,2.15
2023-10-01T22:29:02.021Z,1.42
2023-10-01T22:31:33.846Z,2.25
2023-10-01T22:34:06.753Z,1.52
2023-10-01T22:36:49.567Z,1.80
2023-10-01T22:39:29.318Z,1.70
2023-10-01T22:42:03.617Z,2.03
2023-10-01T22:44:35.772Z,1.70
2023-10-01T22:47:15.647Z,1.98
2023-10-01T22:49:52.682Z,1.48
2023-10-01T22:52:31.843Z,1.30
2023-10-01T22:55:08.244Z,1.55
2023-10-01T22:57:54.416Z,1.63
2023-10-01T23:00:26.622Z,1.88
2023-10-01T23:03:06.100Z,1.67
2023-10-01T23:05:45.789Z,1.67
2023-10-01T23:08:17.308Z,1.63
2023-10-01T23:13:30.633Z,1.67
2023-10-01T23:16:18.981Z,1.67
2023-10-01T23:18:53.075Z,1.77
2023-10-01T23:21:25.692Z,1.42
2023-10-01T23:23:58.383Z,0.95
2023-10-01T23:26:29.824Z,1.10
2023-10-01T23:32:15.358Z,1.77
2023-10-01T23:34:53.626Z,1.50
2023-10-01T23:37:41.932Z,1.17
2023-10-01T23:40:14.547Z,1.40
2023-10-01T23:42:48.912Z,1.77
2023-10-01T23:45:27.258Z,1.45
2023-10-01T23:48:05.215Z,1.58
2023-10-01T23:50:39.948Z,1.83
2023-10-01T23:53:21.011Z,1.83
2023-10-01T23:55:56.209Z,1.33
2023-10-01T23:58:33.710Z,1.40
